Time;durP1;ratioP1;P1;durP2;ratioP2;P2;SDS_P1;SDS_P2;PMS_P1;PMS_P2;Temp;Humidity;BMP_temperature;BMP_pressure;BME280_temperature;BME280_humidity;BME280_pressure;Samples;Min_cycle;Max_cycle;Signal;HPM_P1;HPM_P2
2022/04/28 00:00:56;;;;;;;0.60;0.50;;;11.90;99.90;;;-141.50;100.00;62695.63;5005781;28;24508;-71
2022/04/28 00:03:24;;;;;;;0.40;0.30;;;11.90;99.90;;;-141.50;100.00;62695.63;4991198;28;24421;-68
2022/04/28 00:05:51;;;;;;;0.63;0.50;;;11.80;99.90;;;-141.50;100.00;62695.63;4992859;28;24617;-70
2022/04/28 00:08:18;;;;;;;0.40;0.30;;;11.80;99.90;;;-141.50;100.00;62695.63;4992913;28;25076;-71
2022/04/28 00:10:45;;;;;;;0.40;0.30;;;11.80;99.90;;;-141.50;100.00;62695.63;4992159;28;24436;-72
2022/04/28 00:13:13;;;;;;;0.40;0.40;;;11.80;99.90;;;-141.50;100.00;62695.63;4995469;28;24884;-70
2022/04/28 00:15:40;;;;;;;0.40;0.30;;;11.80;99.90;;;-141.50;100.00;62695.63;4992622;28;24573;-71
2022/04/28 00:18:07;;;;;;;0.50;0.50;;;11.80;99.90;;;-141.50;100.00;62695.63;4991737;28;24431;-71
2022/04/28 00:20:35;;;;;;;0.40;0.30;;;11.70;99.90;;;-141.50;100.00;62695.63;4975355;28;24428;-71
2022/04/28 00:23:03;;;;;;;0.40;0.30;;;11.60;99.90;;;-141.50;100.00;62695.63;4992122;28;24424;-70
2022/04/28 00:25:30;;;;;;;0.47;0.47;;;11.60;99.90;;;-141.50;100.00;62695.63;5014741;28;24528;-70
2022/04/28 00:27:56;;;;;;;0.40;0.30;;;11.60;99.90;;;-141.50;100.00;62695.63;5010551;28;24438;-71
2022/04/28 00:30:23;;;;;;;0.40;0.30;;;11.50;99.90;;;-141.50;100.00;62695.63;5010951;28;25018;-71
2022/04/28 00:32:50;;;;;;;0.40;0.32;;;11.40;99.90;;;-141.50;100.00;62695.63;5011147;28;24454;-71
2022/04/28 00:35:17;;;;;;;0.40;0.30;;;11.40;99.90;;;-141.50;100.00;62695.63;5000884;28;24883;-71
2022/04/28 00:37:44;;;;;;;0.40;0.30;;;11.40;99.90;;;-141.50;100.00;62695.63;5003411;28;24520;-70
2022/04/28 00:40:12;;;;;;;0.40;0.30;;;11.40;99.90;;;-141.50;100.00;62695.63;5001167;28;24447;-70
2022/04/28 00:42:39;;;;;;;0.40;0.40;;;11.30;99.90;;;-141.50;100.00;62695.63;4992295;28;24525;-70
2022/04/28 00:45:06;;;;;;;1.00;0.80;;;11.30;99.90;;;-141.50;100.00;62695.63;5004068;28;24435;-71
2022/04/28 00:53:09;;;;;;;0.40;0.30;;;11.20;99.90;;;-141.50;100.00;62695.63;4990292;28;24425;-70
2022/04/28 00:55:36;;;;;;;0.40;0.40;;;11.20;99.90;;;-141.50;100.00;62695.63;5005557;28;24457;-70
2022/04/28 00:58:03;;;;;;;0.40;0.40;;;11.10;99.90;;;-141.50;100.00;62695.63;5010133;28;24577;-71
2022/04/28 01:00:31;;;;;;;0.40;0.40;;;11.10;99.90;;;-141.50;100.00;62695.63;5008219;28;24825;-71
2022/04/28 01:02:58;;;;;;;0.50;0.50;;;11.10;99.90;;;-141.50;100.00;62695.63;4993065;28;24966;-70
2022/04/28 01:05:26;;;;;;;0.40;0.30;;;11.10;99.90;;;-141.50;100.00;62695.63;5007383;28;24810;-67
2022/04/28 01:07:53;;;;;;;0.40;0.40;;;11.00;99.90;;;-141.50;100.00;62695.63;5009221;28;24513;-70
2022/04/28 01:10:20;;;;;;;0.80;0.70;;;11.00;99.90;;;-141.50;100.00;62695.63;5009877;28;24466;-70
2022/04/28 01:12:47;;;;;;;0.50;0.50;;;11.00;99.90;;;-141.50;100.00;62695.63;5010653;28;24420;-70
2022/04/28 01:15:14;;;;;;;0.60;0.60;;;10.90;99.90;;;-141.50;100.00;62695.63;4994057;28;24539;-71
2022/04/28 01:20:10;;;;;;;0.40;0.30;;;10.90;99.90;;;-141.50;100.00;62695.63;4968935;28;20813;-65
2022/04/28 01:22:37;;;;;;;0.40;0.40;;;10.80;99.90;;;-141.50;100.00;62695.63;4981880;28;24521;-67
2022/04/28 01:25:07;;;;;;;0.40;0.30;;;10.80;99.90;;;-141.50;100.00;62695.63;4953188;28;24674;-67
2022/04/28 01:27:36;;;;;;;0.40;0.30;;;10.80;99.90;;;-141.50;100.00;62695.63;4953814;28;24975;-67
2022/04/28 01:30:11;;;;;;;1.90;1.70;;;10.90;99.90;;;-141.50;100.00;62695.63;4970711;28;25033;-67
2022/04/28 01:32:38;;;;;;;0.40;0.30;;;10.90;99.90;;;-141.50;100.00;62695.63;4969660;28;24432;-67
2022/04/28 01:35:06;;;;;;;0.50;0.50;;;10.90;99.90;;;-141.50;100.00;62695.63;4968395;28;25022;-67
2022/04/28 01:37:33;;;;;;;0.40;0.30;;;10.70;99.90;;;-141.50;100.00;62695.63;4969623;28;25022;-67
2022/04/28 01:40:00;;;;;;;1.60;0.80;;;10.70;99.90;;;-141.50;100.00;62695.63;4969399;28;24452;-67
2022/04/28 01:42:27;;;;;;;0.40;0.30;;;10.60;99.90;;;-141.50;100.00;62695.63;4970894;28;24521;-67
2022/04/28 01:44:54;;;;;;;0.40;0.40;;;10.60;99.90;;;-141.50;100.00;62695.63;4970814;28;25126;-67
2022/04/28 01:47:22;;;;;;;0.50;0.50;;;10.60;99.90;;;-141.50;100.00;62695.63;4972405;28;24426;-67
2022/04/28 01:49:49;;;;;;;0.40;0.30;;;10.50;99.90;;;-141.50;100.00;62695.63;4970567;28;24452;-67
2022/04/28 01:55:01;;;;;;;0.30;0.30;;;10.40;99.90;;;-141.50;100.00;62695.63;4971600;28;20231;-65
2022/04/28 01:57:30;;;;;;;0.40;0.40;;;10.50;99.90;;;-141.50;100.00;62695.63;4969957;28;25007;-65
2022/04/28 02:00:01;;;;;;;0.40;0.30;;;10.40;99.90;;;-141.50;100.00;62695.63;4970434;28;24425;-65
2022/04/28 02:02:28;;;;;;;0.50;0.50;;;10.50;99.90;;;-141.50;100.00;62695.63;4969624;28;24957;-67
2022/04/28 02:04:59;;;;;;;0.40;0.30;;;10.40;99.90;;;-141.50;100.00;62695.63;4975495;28;24449;-67
2022/04/28 02:07:27;;;;;;;0.40;0.30;;;10.40;99.90;;;-141.50;100.00;62695.63;4980008;28;25044;-66
2022/04/28 02:09:56;;;;;;;0.40;0.30;;;10.40;99.90;;;-141.50;100.00;62695.63;4984056;28;24560;-66
2022/04/28 02:12:24;;;;;;;0.80;0.50;;;10.30;99.90;;;-141.50;100.00;62695.63;4969704;28;24901;-65
2022/04/28 02:14:52;;;;;;;0.40;0.40;;;10.30;99.90;;;-141.50;100.00;62695.63;4968987;28;24564;-65
2022/04/28 02:17:23;;;;;;;0.40;0.30;;;10.30;99.90;;;-141.50;100.00;62695.63;4970160;28;24801;-65
2022/04/28 02:19:50;;;;;;;0.40;0.30;;;10.30;99.90;;;-141.50;100.00;62695.63;4968830;28;24442;-66
2022/04/28 02:22:18;;;;;;;0.40;0.40;;;10.30;99.90;;;-141.50;100.00;62695.63;4964464;28;20783;-66
2022/04/28 02:24:44;;;;;;;0.60;0.60;;;10.30;99.90;;;-141.50;100.00;62695.63;4950525;28;24521;-65
2022/04/28 02:27:11;;;;;;;0.70;0.50;;;10.20;99.90;;;-141.50;100.00;62695.63;4952748;28;24442;-66
2022/04/28 02:29:38;;;;;;;0.50;0.50;;;10.30;99.90;;;-141.50;100.00;62695.63;4970053;28;24451;-66
2022/04/28 02:32:06;;;;;;;0.60;0.40;;;10.20;99.90;;;-141.50;100.00;62695.63;4969481;28;24420;-66
2022/04/28 02:34:34;;;;;;;0.40;0.30;;;10.20;99.90;;;-141.50;100.00;62695.63;4968053;28;24525;-66
2022/04/28 02:37:02;;;;;;;0.40;0.30;;;10.20;99.90;;;-141.50;100.00;62695.63;4991145;28;24457;-65
2022/04/28 02:39:29;;;;;;;0.40;0.30;;;10.20;99.90;;;-141.50;100.00;62695.63;4971267;28;25073;-66
2022/04/28 02:41:56;;;;;;;0.40;0.30;;;10.20;99.90;;;-141.50;100.00;62695.63;4967810;28;24549;-67
2022/04/28 02:44:23;;;;;;;0.40;0.30;;;10.10;99.90;;;-141.50;100.00;62695.63;4970050;28;24971;-66
2022/04/28 02:46:50;;;;;;;0.40;0.30;;;10.10;99.90;;;-141.50;100.00;62695.63;4970753;28;24409;-66
2022/04/28 02:49:17;;;;;;;0.40;0.30;;;10.00;99.90;;;-141.50;100.00;62695.63;4969267;28;24445;-66
2022/04/28 02:51:44;;;;;;;1.00;0.90;;;10.00;99.90;;;-141.50;100.00;62695.63;4970068;28;24993;-65
2022/04/28 02:54:11;;;;;;;0.90;0.90;;;10.10;99.90;;;-141.50;100.00;62695.63;4984404;28;24428;-65
2022/04/28 02:56:38;;;;;;;0.80;0.70;;;10.10;99.90;;;-141.50;100.00;62695.63;4979747;28;24471;-66
2022/04/28 02:59:05;;;;;;;0.40;0.30;;;10.10;99.90;;;-141.50;100.00;62695.63;4990541;28;24513;-66
2022/04/28 03:01:32;;;;;;;0.40;0.30;;;10.10;99.90;;;-141.50;100.00;62695.63;4985640;28;24540;-67
2022/04/28 03:03:59;;;;;;;0.70;0.50;;;10.00;99.90;;;-141.50;100.00;62695.63;4988939;28;24795;-67
2022/04/28 03:11:57;;;;;;;0.40;0.30;;;10.10;99.90;;;-141.50;100.00;62695.63;4985425;28;24622;-66
2022/04/28 03:14:25;;;;;;;0.40;0.33;;;10.10;99.90;;;-141.50;100.00;62695.63;4974943;28;24640;-65
2022/04/28 03:16:52;;;;;;;1.40;0.90;;;10.00;99.90;;;-141.50;100.00;62695.63;4973141;28;24460;-65
2022/04/28 03:19:19;;;;;;;0.40;0.30;;;9.90;99.90;;;-141.50;100.00;62695.63;4974263;28;24979;-65
2022/04/28 03:21:45;;;;;;;0.40;0.40;;;9.90;99.90;;;-141.50;100.00;62695.63;4974295;28;24445;-66
2022/04/28 03:24:12;;;;;;;2.20;1.30;;;9.90;99.90;;;-141.50;100.00;62695.63;4975344;28;24414;-65
2022/04/28 03:26:40;;;;;;;0.40;0.30;;;9.90;99.90;;;-141.50;100.00;62695.63;4973450;28;24494;-65
2022/04/28 03:29:07;;;;;;;0.40;0.38;;;9.80;99.90;;;-141.50;100.00;62695.63;4975551;28;24472;-65
2022/04/28 03:31:34;;;;;;;0.40;0.40;;;9.80;99.90;;;-141.50;100.00;62695.63;4974760;28;24472;-65
2022/04/28 03:34:01;;;;;;;0.40;0.30;;;9.80;99.90;;;-141.50;100.00;62695.63;4974174;28;24449;-65
2022/04/28 03:39:13;;;;;;;0.50;0.50;;;9.60;99.90;;;-141.50;100.00;62695.63;4975208;28;24792;-65
2022/04/28 03:41:40;;;;;;;0.40;0.30;;;9.70;99.90;;;-141.50;100.00;62695.63;4973519;28;24446;-65
2022/04/28 03:44:09;;;;;;;0.40;0.30;;;9.60;99.90;;;-141.50;100.00;62695.63;4971068;28;24422;-65
2022/04/28 03:46:36;;;;;;;0.40;0.30;;;9.60;99.90;;;-141.50;100.00;62695.63;4969718;28;24444;-65
2022/04/28 03:49:03;;;;;;;0.40;0.30;;;9.60;99.90;;;-141.50;100.00;62695.63;4970794;28;24432;-65
2022/04/28 03:51:30;;;;;;;0.40;0.30;;;9.60;99.90;;;-141.50;100.00;62695.63;4975081;28;24817;-65
2022/04/28 03:54:00;;;;;;;0.40;0.30;;;9.60;99.90;;;-141.50;100.00;62695.63;4975480;28;24436;-66
2022/04/28 03:56:31;;;;;;;1.30;0.80;;;9.50;99.90;;;-141.50;100.00;62695.63;4957686;28;25035;-66
2022/04/28 03:59:03;;;;;;;0.50;0.50;;;9.50;99.90;;;-141.50;100.00;62695.63;4974798;28;24852;-65
2022/04/28 04:01:30;;;;;;;0.40;0.30;;;9.60;99.90;;;-141.50;100.00;62695.63;4975600;28;24529;-65
2022/04/28 04:03:58;;;;;;;0.70;0.70;;;9.60;99.90;;;-141.50;100.00;62695.63;4975253;28;24618;-65
2022/04/28 04:06:25;;;;;;;0.40;0.30;;;9.60;99.90;;;-141.50;100.00;62695.63;4958151;28;24446;-64
2022/04/28 04:08:52;;;;;;;0.47;0.43;;;9.60;99.90;;;-141.50;100.00;62695.63;4971019;28;24456;-65
2022/04/28 04:11:19;;;;;;;0.40;0.30;;;9.60;99.90;;;-141.50;100.00;62695.63;4972230;28;24424;-67
2022/04/28 04:13:46;;;;;;;0.40;0.30;;;9.60;99.90;;;-141.50;100.00;62695.63;4971223;28;25013;-65
2022/04/28 04:16:13;;;;;;;0.40;0.30;;;9.60;99.90;;;-141.50;100.00;62695.63;4973381;28;24971;-65
2022/04/28 04:18:40;;;;;;;0.45;0.32;;;9.60;99.90;;;-141.50;100.00;62695.63;4971699;28;24426;-65
2022/04/28 04:21:08;;;;;;;0.40;0.30;;;9.60;99.90;;;-141.50;100.00;62695.63;4969369;28;24474;-65
2022/04/28 04:23:34;;;;;;;0.50;0.50;;;9.60;99.90;;;-141.50;100.00;62695.63;4972483;28;24413;-65
2022/04/28 04:26:02;;;;;;;0.60;0.60;;;9.60;99.90;;;-141.50;100.00;62695.63;4971715;28;24414;-66
2022/04/28 04:28:29;;;;;;;0.80;0.70;;;9.60;99.90;;;-141.50;100.00;62695.63;4973817;28;24791;-65
2022/04/28 04:33:42;;;;;;;1.00;0.60;;;9.60;99.90;;;-141.50;100.00;62695.63;4990045;28;24775;-65
2022/04/28 04:36:09;;;;;;;0.40;0.30;;;9.60;99.90;;;-141.50;100.00;62695.63;4973808;28;24485;-66
2022/04/28 04:38:36;;;;;;;0.40;0.30;;;9.80;99.90;;;-141.50;100.00;62695.63;4972817;28;20776;-66
2022/04/28 04:41:03;;;;;;;0.40;0.30;;;9.90;99.90;;;-141.50;100.00;62695.63;4969794;28;25020;-66
2022/04/28 04:43:30;;;;;;;0.43;0.43;;;10.00;99.90;;;-141.50;100.00;62695.63;4952529;29;24512;-66
2022/04/28 04:45:57;;;;;;;0.40;0.30;;;10.30;99.90;;;-141.50;100.00;62695.63;4964032;28;21127;-67
2022/04/28 04:48:24;;;;;;;0.40;0.30;;;10.40;99.90;;;-141.50;100.00;62695.63;4974754;28;24429;-67
2022/04/28 04:50:52;;;;;;;0.40;0.30;;;10.50;99.90;;;-141.50;100.00;62695.63;4972458;28;24867;-66
2022/04/28 04:53:19;;;;;;;0.40;0.30;;;10.60;99.90;;;-141.50;100.00;62695.63;4972546;28;24549;-66
2022/04/28 04:55:46;;;;;;;0.40;0.40;;;10.70;99.90;;;-141.50;100.00;62695.63;4972226;28;24537;-66
2022/04/28 04:58:13;;;;;;;0.40;0.40;;;11.00;99.90;;;-141.50;100.00;62695.63;4972393;28;24513;-65
2022/04/28 05:00:40;;;;;;;1.20;0.80;;;11.30;99.90;;;-141.50;100.00;62695.63;4982259;28;24533;-66
2022/04/28 05:03:07;;;;;;;0.60;0.60;;;11.60;99.90;;;-141.50;100.00;62695.63;4976413;28;24529;-66
2022/04/28 05:05:35;;;;;;;0.70;0.70;;;11.80;99.90;;;-141.50;100.00;62695.63;4970577;28;24489;-67
2022/04/28 05:08:01;;;;;;;0.40;0.30;;;12.00;99.90;;;-141.50;100.00;62695.63;4973068;28;24520;-67
2022/04/28 05:10:28;;;;;;;0.40;0.30;;;12.00;99.90;;;-141.50;100.00;62695.63;4972796;28;24410;-68
2022/04/28 05:12:55;;;;;;;0.80;0.80;;;12.10;99.90;;;-141.50;100.00;62695.63;4973314;28;24425;-67
2022/04/28 05:15:22;;;;;;;0.40;0.40;;;12.20;99.90;;;-141.50;100.00;62695.63;4970519;28;24442;-68
2022/04/28 05:17:49;;;;;;;0.68;0.47;;;12.30;99.90;;;-141.50;100.00;62695.63;4971730;28;24426;-67
2022/04/28 05:20:16;;;;;;;0.60;0.60;;;12.30;99.90;;;-141.50;100.00;62695.63;4972110;28;24428;-67
2022/04/28 05:22:43;;;;;;;0.40;0.30;;;12.50;99.90;;;-141.50;100.00;62695.63;4971635;28;24498;-65
2022/04/28 05:25:10;;;;;;;0.40;0.30;;;12.60;99.90;;;-141.50;100.00;62695.63;4971169;28;24414;-66
2022/04/28 05:27:37;;;;;;;1.30;0.95;;;12.80;99.90;;;-141.50;100.00;62695.63;4970997;28;24521;-67
2022/04/28 05:30:04;;;;;;;0.40;0.30;;;12.90;99.90;;;-141.50;100.00;62695.63;4971453;28;24452;-66
2022/04/28 05:32:31;;;;;;;0.57;0.57;;;13.10;99.90;;;-141.50;100.00;62695.63;4972326;28;20756;-67
2022/04/28 05:34:58;;;;;;;0.40;0.30;;;13.40;99.90;;;-141.50;100.00;62695.63;4969959;28;25020;-67
2022/04/28 05:37:25;;;;;;;0.50;0.50;;;14.00;99.90;;;-141.50;100.00;62695.63;4980273;28;24658;-66
2022/04/28 05:39:53;;;;;;;0.30;0.30;;;14.40;99.90;;;-141.50;100.00;62695.63;4990414;28;20230;-67
2022/04/28 05:42:20;;;;;;;0.30;0.30;;;15.00;99.90;;;-141.50;100.00;62695.63;4977476;28;20637;-67
2022/04/28 05:47:32;;;;;;;0.30;0.20;;;16.00;99.90;;;-141.50;100.00;62695.63;4972236;28;20647;-67
2022/04/28 05:50:01;;;;;;;0.30;0.20;;;16.30;99.90;;;-141.50;100.00;62695.63;4972512;28;20718;-67
2022/04/28 05:52:28;;;;;;;0.30;0.30;;;16.70;99.90;;;-141.50;100.00;62695.63;4969958;28;20677;-67
2022/04/28 05:54:55;;;;;;;0.60;0.60;;;17.30;98.70;;;-141.50;100.00;62695.63;4954500;28;20618;-67
2022/04/28 05:57:22;;;;;;;0.73;0.73;;;17.90;97.20;;;-141.50;100.00;62695.63;4972304;28;20778;-67
2022/04/28 05:59:49;;;;;;;0.30;0.30;;;18.20;95.70;;;-141.50;100.00;62695.63;4972019;28;20730;-67
2022/04/28 06:02:16;;;;;;;0.30;0.30;;;18.80;94.50;;;-141.50;100.00;62695.63;4970118;28;20862;-67
2022/04/28 06:04:43;;;;;;;0.30;0.30;;;19.60;92.40;;;-141.50;100.00;62695.63;4970289;28;20666;-67
2022/04/28 06:07:10;;;;;;;0.30;0.30;;;20.30;91.10;;;-141.50;100.00;62695.63;4970644;28;21284;-67
2022/04/28 06:09:37;;;;;;;0.30;0.30;;;21.00;87.30;;;-141.50;100.00;62695.63;4970724;28;20642;-63
2022/04/28 06:12:04;;;;;;;0.30;0.30;;;21.60;82.70;;;-141.50;100.00;62695.63;4971231;28;20641;-67
2022/04/28 06:14:31;;;;;;;0.40;0.40;;;22.40;78.30;;;-141.50;100.00;62695.63;4971184;28;21001;-67
2022/04/28 06:16:58;;;;;;;0.87;0.70;;;23.10;74.60;;;-141.50;100.00;62695.63;4969322;28;20794;-67
2022/04/28 06:19:25;;;;;;;0.30;0.30;;;23.90;69.70;;;-141.50;100.00;62695.63;4971515;28;20654;-67
2022/04/28 06:21:53;;;;;;;0.30;0.30;;;24.30;67.10;;;-141.50;100.00;62695.63;4969781;28;20649;-66
2022/04/28 06:24:19;;;;;;;0.30;0.30;;;24.80;63.80;;;-141.50;100.00;62695.63;4972160;28;20626;-66
2022/04/28 06:26:46;;;;;;;0.30;0.30;;;25.20;61.80;;;-141.50;100.00;62695.63;4970240;28;20642;-67
2022/04/28 06:29:13;;;;;;;0.30;0.30;;;25.70;60.20;;;-141.50;100.00;62695.63;4971950;28;20643;-66
2022/04/28 06:31:40;;;;;;;0.40;0.40;;;26.30;58.60;;;-141.50;100.00;62695.63;4970092;28;20644;-63
2022/04/28 06:34:08;;;;;;;0.30;0.30;;;27.20;56.50;;;-141.50;100.00;62695.63;4970928;28;21199;-66
2022/04/28 06:36:35;;;;;;;0.30;0.30;;;27.90;54.50;;;-141.50;100.00;62695.63;4977064;28;21070;-67
2022/04/28 06:39:02;;;;;;;0.40;0.40;;;28.10;52.70;;;-141.50;100.00;62695.63;4971122;28;20674;-66
2022/04/28 06:41:29;;;;;;;0.30;0.30;;;29.00;51.40;;;-141.50;100.00;62695.63;4969214;28;20714;-66
2022/04/28 06:43:56;;;;;;;0.30;0.30;;;29.60;50.20;;;-141.50;100.00;62695.63;4972686;28;20709;-67
2022/04/28 06:46:23;;;;;;;0.30;0.30;;;30.10;49.20;;;-141.50;100.00;62695.63;4971835;28;20623;-66
2022/04/28 06:48:50;;;;;;;0.40;0.40;;;31.40;47.70;;;-141.50;100.00;62695.63;4972192;28;20728;-66
2022/04/28 06:51:17;;;;;;;0.40;0.30;;;32.10;45.70;;;-141.50;100.00;62695.63;4969796;28;20739;-66
2022/04/28 06:53:44;;;;;;;0.40;0.30;;;32.60;44.70;;;-141.50;100.00;62695.63;4968083;28;21136;-66
2022/04/28 06:56:11;;;;;;;0.40;0.30;;;33.20;43.70;;;-141.50;100.00;62695.63;4966396;28;20655;-66
2022/04/28 06:58:38;;;;;;;1.33;1.23;;;33.90;43.10;;;-141.50;100.00;62695.63;4980767;28;20693;-65
2022/04/28 07:01:05;;;;;;;0.40;0.30;;;34.20;41.50;;;-141.50;100.00;62695.63;4981536;28;20662;-67
2022/04/28 07:03:33;;;;;;;0.40;0.30;;;34.70;41.50;;;-141.50;100.00;62695.63;4971857;28;20621;-68
2022/04/28 07:06:00;;;;;;;0.40;0.30;;;35.00;40.70;;;-141.50;100.00;62695.63;4953599;28;20642;-67
2022/04/28 07:08:27;;;;;;;1.17;1.07;;;35.30;39.80;;;-141.50;100.00;62695.63;4970475;28;20681;-67
2022/04/28 07:10:54;;;;;;;0.30;0.30;;;35.20;40.10;;;-141.50;100.00;62695.63;4970699;28;20635;-68
2022/04/28 07:13:21;;;;;;;0.40;0.30;;;35.10;40.00;;;-141.50;100.00;62695.63;4972542;28;20625;-68
2022/04/28 07:15:48;;;;;;;0.33;0.30;;;34.40;40.30;;;-141.50;100.00;62695.63;4966834;28;21162;-68
2022/04/28 07:18:16;;;;;;;0.40;0.30;;;34.40;40.30;;;-141.50;100.00;62695.63;4972998;23;20675;-67
2022/04/28 07:20:44;;;;;;;0.37;0.30;;;33.80;40.30;;;-141.50;100.00;62695.63;5007449;28;20717;-66
2022/04/28 07:23:11;;;;;;;0.40;0.40;;;33.80;40.40;;;-141.50;100.00;62695.63;5009331;28;20649;-67
2022/04/28 07:25:39;;;;;;;0.30;0.30;;;33.90;40.70;;;-141.50;100.00;62695.63;5007782;28;20625;-67
2022/04/28 07:28:07;;;;;;;0.40;0.40;;;34.30;40.30;;;-141.50;100.00;62695.63;5006017;28;20633;-67
2022/04/28 07:30:34;;;;;;;0.60;0.60;;;33.70;40.30;;;-141.50;100.00;62695.63;4991536;28;20721;-66
2022/04/28 07:33:00;;;;;;;0.30;0.30;;;33.20;40.90;;;-141.50;100.00;62695.63;4989383;28;21465;-63
2022/04/28 07:35:28;;;;;;;1.53;1.43;;;33.00;41.00;;;-141.50;100.00;62695.63;4987089;28;20634;-67
2022/04/28 07:37:54;;;;;;;0.40;0.40;;;33.10;41.30;;;-141.50;100.00;62695.63;4979900;28;20789;-67
2022/04/28 07:40:25;;;;;;;0.30;0.30;;;33.10;41.50;;;-141.50;100.00;62695.63;4989652;28;20618;-68
2022/04/28 07:42:53;;;;;;;0.40;0.40;;;33.60;41.10;;;-141.50;100.00;62695.63;4990551;28;20740;-67
2022/04/28 07:45:20;;;;;;;2.63;2.00;;;33.80;40.40;;;-141.50;100.00;62695.63;4991340;28;20645;-68
2022/04/28 07:47:47;;;;;;;0.40;0.40;;;34.10;40.50;;;-141.50;100.00;62695.63;4992934;28;20708;-67
2022/04/28 07:50:14;;;;;;;0.40;0.40;;;34.10;40.30;;;-141.50;100.00;62695.63;4993664;28;21216;-67
2022/04/28 07:52:44;;;;;;;0.30;0.30;;;33.90;40.40;;;-141.50;100.00;62695.63;4989322;28;20637;-67
2022/04/28 07:55:11;;;;;;;0.30;0.30;;;33.30;41.00;;;-141.50;100.00;62695.63;4972621;28;20723;-68
2022/04/28 07:57:38;;;;;;;0.30;0.30;;;33.20;41.00;;;-141.50;100.00;62695.63;4987433;28;20662;-68
2022/04/28 08:00:07;;;;;;;0.70;0.70;;;33.50;40.90;;;-141.50;100.00;62695.63;4994273;28;20634;-68
2022/04/28 08:02:36;;;;;;;0.30;0.30;;;33.80;40.40;;;-141.50;100.00;62695.63;4989448;28;20626;-66
2022/04/28 08:05:08;;;;;;;0.40;0.40;;;33.50;40.40;;;-141.50;100.00;62695.63;4991323;28;20627;-64
2022/04/28 08:07:35;;;;;;;0.37;0.37;;;34.00;39.90;;;-141.50;100.00;62695.63;4987483;28;20657;-67
2022/04/28 08:10:04;;;;;;;0.40;0.40;;;34.10;40.00;;;-141.50;100.00;62695.63;4980616;28;20668;-67
2022/04/28 08:12:31;;;;;;;0.47;0.47;;;34.60;39.40;;;-141.50;100.00;62695.63;4977458;28;20642;-67
2022/04/28 08:15:14;;;;;;;0.50;0.50;;;35.10;39.00;;;-141.50;100.00;62695.63;4980232;28;20649;-66
2022/04/28 08:17:41;;;;;;;0.30;0.30;;;35.60;38.30;;;-141.50;100.00;62695.63;4992499;28;20752;-66
2022/04/28 08:20:08;;;;;;;0.40;0.40;;;35.80;38.20;;;-141.50;100.00;62695.63;4990608;28;21258;-68
2022/04/28 08:22:35;;;;;;;0.40;0.40;;;36.10;37.80;;;-141.50;100.00;62695.63;4991895;28;20637;-68
2022/04/28 08:25:02;;;;;;;0.40;0.40;;;36.30;37.30;;;-141.50;100.00;62695.63;4980556;28;20626;-67
2022/04/28 08:27:29;;;;;;;3.50;1.47;;;36.40;36.90;;;-141.50;100.00;62695.63;4991688;28;20705;-68
2022/04/28 08:29:56;;;;;;;0.40;0.40;;;36.70;36.50;;;-141.50;100.00;62695.63;4993197;28;20648;-65
2022/04/28 08:32:23;;;;;;;0.40;0.40;;;37.00;36.20;;;-141.50;100.00;62695.63;4990755;28;20622;-70
2022/04/28 08:34:50;;;;;;;0.50;0.50;;;37.30;36.20;;;-141.50;100.00;62695.63;4990249;28;20646;-66
2022/04/28 08:37:17;;;;;;;0.40;0.40;;;37.60;36.00;;;-141.50;100.00;62695.63;4989984;28;21243;-66
2022/04/28 08:39:44;;;;;;;0.60;0.60;;;37.70;35.60;;;-141.50;100.00;62695.63;4991460;28;21286;-68
2022/04/28 08:42:13;;;;;;;0.40;0.40;;;38.50;35.00;;;-141.50;100.00;62695.63;4992580;28;20617;-66
2022/04/28 08:44:40;;;;;;;0.40;0.40;;;38.90;34.90;;;-141.50;100.00;62695.63;4988576;28;21001;-67
2022/04/28 08:47:08;;;;;;;0.40;0.40;;;39.80;34.60;;;-141.50;100.00;62695.63;4991743;28;20652;-64
2022/04/28 08:49:36;;;;;;;0.60;0.60;;;40.60;34.20;;;-141.50;100.00;62695.63;4989546;28;21231;-68
2022/04/28 08:52:06;;;;;;;0.63;0.63;;;41.20;33.80;;;-141.50;100.00;62695.63;4992197;28;20736;-67
2022/04/28 08:54:37;;;;;;;0.40;0.40;;;41.20;33.30;;;-141.50;100.00;62695.63;4991622;28;20661;-68
2022/04/28 08:57:05;;;;;;;0.80;0.80;;;42.10;32.60;;;-141.50;100.00;62695.63;4991411;28;21015;-69
2022/04/28 08:59:32;;;;;;;0.40;0.40;;;41.70;32.50;;;-141.50;100.00;62695.63;4993751;28;20854;-71
2022/04/28 09:01:59;;;;;;;0.90;0.90;;;42.20;32.70;;;-141.50;100.00;62695.63;4991286;28;20631;-66
2022/04/28 09:04:27;;;;;;;0.40;0.40;;;42.80;33.00;;;-141.50;100.00;62695.63;4992706;28;20653;-71
2022/04/28 09:06:56;;;;;;;0.50;0.50;;;43.40;32.00;;;-141.50;100.00;62695.63;4993041;28;20619;-68
2022/04/28 09:09:26;;;;;;;0.40;0.40;;;44.00;31.50;;;-141.50;100.00;62695.63;4992200;28;20654;-69
2022/04/28 09:11:58;;;;;;;0.50;0.50;;;44.80;31.30;;;-141.50;100.00;62695.63;4992199;28;20985;-68
2022/04/28 09:14:25;;;;;;;0.40;0.40;;;44.90;30.70;;;-141.50;100.00;62695.63;4989699;28;20640;-64
2022/04/28 09:17:04;;;;;;;0.50;0.50;;;45.30;30.80;;;-141.50;100.00;62695.63;4990958;28;20669;-68
2022/04/28 09:19:39;;;;;;;0.73;0.73;;;45.80;30.50;;;-141.50;100.00;62695.63;4991407;28;20664;-68
2022/04/28 09:22:13;;;;;;;0.50;0.50;;;45.90;30.20;;;-141.50;100.00;62695.63;4990985;28;20708;-68
2022/04/28 09:24:45;;;;;;;0.70;0.70;;;45.40;30.10;;;-141.50;100.00;62695.63;4991259;28;20827;-70
2022/04/28 09:27:14;;;;;;;0.50;0.50;;;45.40;30.20;;;-141.50;100.00;62695.63;4990576;28;21176;-68
2022/04/28 09:29:41;;;;;;;0.83;0.83;;;45.20;30.10;;;-141.50;100.00;62695.63;4991655;28;20680;-68
2022/04/28 09:32:13;;;;;;;0.50;0.50;;;45.00;30.20;;;-141.50;100.00;62695.63;4992902;28;20627;-68
2022/04/28 09:35:11;;;;;;;0.50;0.50;;;45.50;29.80;;;-141.50;100.00;62695.63;4990283;28;20637;-65
2022/04/28 09:37:38;;;;;;;0.50;0.50;;;46.30;29.60;;;-141.50;100.00;62695.63;4991281;28;20701;-67
2022/04/28 09:42:53;;;;;;;0.50;0.50;;;46.80;29.40;;;-141.50;100.00;62695.63;4991445;28;20605;-66
2022/04/28 09:45:23;;;;;;;0.50;0.50;;;46.40;29.30;;;-141.50;100.00;62695.63;4989023;28;20721;-66
2022/04/28 09:48:04;;;;;;;0.50;0.50;;;46.10;29.30;;;-141.50;100.00;62695.63;4990522;28;20637;-67
2022/04/28 09:50:31;;;;;;;0.50;0.50;;;45.70;29.60;;;-141.50;100.00;62695.63;4990838;28;20622;-70
2022/04/28 09:53:05;;;;;;;0.50;0.50;;;46.40;29.30;;;-141.50;100.00;62695.63;4991804;28;20622;-67
2022/04/28 09:55:32;;;;;;;0.60;0.60;;;47.00;29.10;;;-141.50;100.00;62695.63;4992439;28;20626;-69
2022/04/28 09:57:59;;;;;;;0.50;0.50;;;47.20;29.00;;;-141.50;100.00;62695.63;4989594;28;20667;-70
2022/04/28 10:00:27;;;;;;;0.50;0.50;;;46.10;29.20;;;-141.50;100.00;62695.63;4991914;28;20619;-69
2022/04/28 10:02:55;;;;;;;0.50;0.50;;;45.40;29.30;;;-141.50;100.00;62695.63;4991960;28;21202;-69
2022/04/28 10:05:26;;;;;;;0.70;0.70;;;44.70;29.50;;;-141.50;100.00;62695.63;4991323;28;20700;-69
2022/04/28 10:07:53;;;;;;;0.50;0.50;;;42.60;29.70;;;-141.50;100.00;62695.63;4991500;28;20650;-69
2022/04/28 10:10:21;;;;;;;0.40;0.40;;;39.40;30.40;;;-141.50;100.00;62695.63;4973571;28;20714;-68
2022/04/28 10:12:49;;;;;;;0.40;0.40;;;35.60;32.50;;;-141.50;100.00;62695.63;4991115;28;20615;-71
2022/04/28 10:15:16;;;;;;;0.40;0.40;;;32.90;34.80;;;-141.50;100.00;62695.63;4988274;28;20639;-69
2022/04/28 10:17:49;;;;;;;0.40;0.40;;;31.00;36.70;;;-141.50;100.00;62695.63;5005433;28;20779;-68
2022/04/28 10:20:25;;;;;;;0.40;0.30;;;29.70;38.00;;;-141.50;100.00;62695.63;4987109;28;20761;-72
2022/04/28 10:23:14;;;;;;;0.43;0.43;;;29.80;38.00;;;-141.50;100.00;62695.63;4985196;28;20619;-74
2022/04/28 10:34:17;;;;;;;0.40;0.30;;;28.80;38.40;;;-141.50;100.00;62695.63;5004600;28;20613;-75
2022/04/28 10:36:54;;;;;;;0.40;0.30;;;28.60;39.00;;;-141.50;100.00;62695.63;4992375;28;20610;-73
2022/04/28 10:39:43;;;;;;;0.40;0.40;;;28.40;39.00;;;-141.50;100.00;62695.63;4991723;28;20638;-73